Time;durP1;ratioP1;P1;durP2;ratioP2;P2;SDS_P1;SDS_P2;PMS_P1;PMS_P2;Temp;Humidity;BMP_temperature;BMP_pressure;BME280_temperature;BME280_humidity;BME280_pressure;Samples;Min_cycle;Max_cycle;Signal;HPM_P1;HPM_P2
2022/08/30 00:01:06;;;;;;;7.57;5.50;;;;;;;;;;5025478;28;20050;-86
2022/08/30 00:03:33;;;;;;;6.90;5.45;;;;;;;;;;5017783;28;20380;-76
2022/08/30 00:06:00;;;;;;;8.85;5.68;;;;;;;;;;5020021;28;20491;-84
2022/08/30 00:08:26;;;;;;;6.55;5.68;;;;;;;;;;5025881;28;20442;-76
2022/08/30 00:10:52;;;;;;;6.90;5.57;;;;;;;;;;5026426;28;20044;-87
2022/08/30 00:13:19;;;;;;;7.82;5.45;;;;;;;;;;5019110;28;20021;-84
2022/08/30 00:15:45;;;;;;;9.80;6.13;;;;;;;;;;5023479;28;20101;-81
2022/08/30 00:18:12;;;;;;;6.57;5.22;;;;;;;;;;5020373;28;20464;-83
2022/08/30 00:20:38;;;;;;;7.25;5.70;;;;;;;;;;5016141;28;20498;-81
2022/08/30 00:23:04;;;;;;;8.43;5.72;;;;;;;;;;5024304;28;20084;-85
2022/08/30 00:25:30;;;;;;;8.20;5.57;;;;;;;;;;5022199;28;20049;-84
2022/08/30 00:27:57;;;;;;;7.70;5.80;;;;;;;;;;5015100;28;20029;-85
2022/08/30 00:30:23;;;;;;;7.18;6.00;;;;;;;;;;5025126;28;20022;-74
2022/08/30 00:32:49;;;;;;;6.50;5.68;;;;;;;;;;5026997;28;20084;-86
2022/08/30 00:35:17;;;;;;;6.95;5.28;;;;;;;;;;5017290;28;20022;-86
2022/08/30 00:37:43;;;;;;;8.60;6.50;;;;;;;;;;5019796;28;20037;-74
2022/08/30 00:40:11;;;;;;;7.07;5.80;;;;;;;;;;5023229;28;20034;-85
2022/08/30 00:42:38;;;;;;;8.38;5.85;;;;;;;;;;5023284;28;20067;-85
2022/08/30 00:45:30;;;;;;;7.20;6.18;;;;;;;;;;5024057;28;20040;-85
2022/08/30 00:47:57;;;;;;;7.55;5.60;;;;;;;;;;5023011;28;20065;-76
2022/08/30 00:50:25;;;;;;;6.78;5.63;;;;;;;;;;5022735;28;20025;-81
2022/08/30 00:52:53;;;;;;;7.60;6.10;;;;;;;;;;5025929;28;20032;-81
2022/08/30 00:55:19;;;;;;;7.35;6.55;;;;;;;;;;5028891;28;20037;-85
2022/08/30 00:57:46;;;;;;;10.23;6.60;;;;;;;;;;5019135;28;20499;-84
2022/08/30 01:00:14;;;;;;;7.97;6.65;;;;;;;;;;5014535;28;20040;-85
2022/08/30 01:02:40;;;;;;;8.02;6.80;;;;;;;;;;5026180;28;20028;-81
2022/08/30 01:05:09;;;;;;;13.18;7.93;;;;;;;;;;5021429;28;20085;-85
2022/08/30 01:07:35;;;;;;;8.05;6.60;;;;;;;;;;5017311;28;20013;-86
2022/08/30 01:10:02;;;;;;;7.97;6.57;;;;;;;;;;5027267;28;20068;-74
2022/08/30 01:12:28;;;;;;;9.50;6.68;;;;;;;;;;5015032;28;20776;-79
2022/08/30 01:14:55;;;;;;;8.20;6.95;;;;;;;;;;5022525;28;20037;-84
2022/08/30 01:17:21;;;;;;;8.63;6.90;;;;;;;;;;5023731;28;20032;-85
2022/08/30 01:19:59;;;;;;;8.15;7.13;;;;;;;;;;5018497;28;20030;-87
2022/08/30 01:22:35;;;;;;;8.68;7.63;;;;;;;;;;5021095;28;20100;-85
2022/08/30 01:25:02;;;;;;;9.45;7.45;;;;;;;;;;5021617;28;20487;-87
2022/08/30 01:27:29;;;;;;;8.70;7.80;;;;;;;;;;5023195;28;20033;-86
2022/08/30 01:29:56;;;;;;;13.23;8.68;;;;;;;;;;5024652;28;20113;-86
2022/08/30 01:32:24;;;;;;;13.45;9.80;;;;;;;;;;5017852;28;20399;-86
2022/08/30 01:34:50;;;;;;;11.80;8.82;;;;;;;;;;5020507;28;20032;-81
2022/08/30 01:37:19;;;;;;;11.93;9.13;;;;;;;;;;5020093;28;20505;-86
2022/08/30 01:39:45;;;;;;;11.07;8.88;;;;;;;;;;5019382;28;20041;-85
2022/08/30 01:42:12;;;;;;;11.45;8.90;;;;;;;;;;5018546;28;20025;-87
2022/08/30 01:44:38;;;;;;;10.93;9.00;;;;;;;;;;5022580;28;20037;-75
2022/08/30 01:47:04;;;;;;;10.00;9.00;;;;;;;;;;5017014;28;20036;-85
2022/08/30 01:49:31;;;;;;;11.25;9.65;;;;;;;;;;5014231;28;20041;-78
2022/08/30 01:51:57;;;;;;;11.65;8.82;;;;;;;;;;5023777;28;20483;-74
2022/08/30 01:54:23;;;;;;;12.85;8.18;;;;;;;;;;5015723;28;20061;-74
2022/08/30 01:56:49;;;;;;;12.07;7.97;;;;;;;;;;5019136;28;20096;-86
2022/08/30 01:59:15;;;;;;;10.10;7.97;;;;;;;;;;5024583;28;20484;-82
2022/08/30 02:01:41;;;;;;;13.50;8.07;;;;;;;;;;5019592;28;20034;-82
2022/08/30 02:04:08;;;;;;;10.95;8.55;;;;;;;;;;5014231;28;20427;-86
2022/08/30 02:06:34;;;;;;;8.95;8.05;;;;;;;;;;5019655;28;20492;-82
2022/08/30 02:09:00;;;;;;;8.50;7.57;;;;;;;;;;5012558;28;20026;-85
2022/08/30 02:11:26;;;;;;;9.05;7.22;;;;;;;;;;5017293;28;20057;-83
2022/08/30 02:13:53;;;;;;;8.90;7.05;;;;;;;;;;5021885;28;20041;-85
2022/08/30 02:16:21;;;;;;;9.48;7.32;;;;;;;;;;5018798;28;20113;-83
2022/08/30 02:18:48;;;;;;;9.68;6.57;;;;;;;;;;5020340;28;20030;-85
2022/08/30 02:21:14;;;;;;;8.10;6.78;;;;;;;;;;5012335;28;20100;-83
2022/08/30 02:23:40;;;;;;;8.65;6.82;;;;;;;;;;5019190;28;20137;-85
2022/08/30 02:26:06;;;;;;;11.85;6.78;;;;;;;;;;5024184;28;20112;-86
2022/08/30 02:28:32;;;;;;;11.65;6.80;;;;;;;;;;5024125;28;20096;-75
2022/08/30 02:30:59;;;;;;;7.80;6.90;;;;;;;;;;5012620;28;20032;-75
2022/08/30 02:33:25;;;;;;;9.98;7.07;;;;;;;;;;5012663;28;20022;-74
2022/08/30 02:35:51;;;;;;;10.73;7.05;;;;;;;;;;5019606;28;20030;-75
2022/08/30 02:38:17;;;;;;;9.18;7.00;;;;;;;;;;5020896;28;20021;-74
2022/08/30 02:40:43;;;;;;;9.90;6.90;;;;;;;;;;5020995;28;20059;-74
2022/08/30 02:43:10;;;;;;;9.50;7.00;;;;;;;;;;5023016;28;20075;-83
2022/08/30 02:45:36;;;;;;;11.80;7.07;;;;;;;;;;5025076;28;20028;-83
2022/08/30 02:48:03;;;;;;;10.55;7.07;;;;;;;;;;5013348;28;20030;-86
2022/08/30 02:50:30;;;;;;;9.25;6.97;;;;;;;;;;5027133;28;20026;-82
2022/08/30 02:52:56;;;;;;;9.43;7.25;;;;;;;;;;5017557;28;20113;-85
2022/08/30 02:55:22;;;;;;;8.90;6.97;;;;;;;;;;5017872;28;20030;-86
2022/08/30 02:57:48;;;;;;;9.75;7.40;;;;;;;;;;5013457;28;20105;-84
2022/08/30 03:00:16;;;;;;;9.02;6.80;;;;;;;;;;5015721;28;20045;-85
2022/08/30 03:02:42;;;;;;;9.95;7.28;;;;;;;;;;5017067;28;20076;-87
2022/08/30 03:05:08;;;;;;;9.45;6.93;;;;;;;;;;5020493;28;20262;-87
2022/08/30 03:07:35;;;;;;;7.78;6.97;;;;;;;;;;5026616;28;20033;-86
2022/08/30 03:10:01;;;;;;;11.07;6.95;;;;;;;;;;5012832;28;20034;-79
2022/08/30 03:12:27;;;;;;;15.32;8.13;;;;;;;;;;5015750;28;20029;-85
2022/08/30 03:14:53;;;;;;;9.02;7.28;;;;;;;;;;5012027;28;20026;-86
2022/08/30 03:17:19;;;;;;;8.18;7.25;;;;;;;;;;5021567;28;20052;-86
2022/08/30 03:19:45;;;;;;;14.18;7.72;;;;;;;;;;5020763;28;20037;-86
2022/08/30 03:22:11;;;;;;;9.60;7.38;;;;;;;;;;5022458;28;20403;-84
2022/08/30 03:24:38;;;;;;;10.30;7.47;;;;;;;;;;5015712;28;20026;-79
2022/08/30 03:27:04;;;;;;;10.85;7.32;;;;;;;;;;5026760;28;20025;-85
2022/08/30 03:29:30;;;;;;;12.00;7.85;;;;;;;;;;5023900;28;20411;-86
2022/08/30 03:31:56;;;;;;;10.27;7.47;;;;;;;;;;5019833;28;20036;-85
2022/08/30 03:34:23;;;;;;;9.60;7.65;;;;;;;;;;5023490;28;20391;-85
2022/08/30 03:36:50;;;;;;;10.60;7.88;;;;;;;;;;5016766;28;20028;-86
2022/08/30 03:39:16;;;;;;;9.60;7.38;;;;;;;;;;5021004;28;20076;-84
2022/08/30 03:41:42;;;;;;;12.00;7.75;;;;;;;;;;5018507;28;20038;-76
2022/08/30 03:44:08;;;;;;;12.43;8.20;;;;;;;;;;5017884;28;20022;-85
2022/08/30 03:46:34;;;;;;;9.93;8.13;;;;;;;;;;5021367;28;20194;-82
2022/08/30 03:49:01;;;;;;;9.80;7.78;;;;;;;;;;5027743;28;20033;-86
2022/08/30 03:51:27;;;;;;;10.30;8.07;;;;;;;;;;5026559;28;20033;-74
2022/08/30 03:53:53;;;;;;;11.38;8.93;;;;;;;;;;5021433;28;20033;-73
2022/08/30 03:56:19;;;;;;;14.90;8.30;;;;;;;;;;5019712;28;20026;-84
2022/08/30 03:58:45;;;;;;;11.35;7.80;;;;;;;;;;5023374;28;20470;-79
2022/08/30 04:01:11;;;;;;;13.77;8.30;;;;;;;;;;5028954;28;20030;-83
2022/08/30 04:03:38;;;;;;;10.40;8.02;;;;;;;;;;5018107;28;20624;-82
2022/08/30 04:06:04;;;;;;;11.32;7.68;;;;;;;;;;5022513;28;20492;-80
2022/08/30 04:08:30;;;;;;;12.57;7.53;;;;;;;;;;5031395;28;20034;-86
2022/08/30 04:10:56;;;;;;;10.73;7.78;;;;;;;;;;5019833;28;20089;-84
2022/08/30 04:13:22;;;;;;;14.07;9.93;;;;;;;;;;5028606;28;20483;-79
2022/08/30 04:15:49;;;;;;;19.00;13.13;;;;;;;;;;5019005;28;20115;-75
2022/08/30 04:18:15;;;;;;;15.40;10.02;;;;;;;;;;5017541;28;20030;-85
2022/08/30 04:20:42;;;;;;;15.75;9.23;;;;;;;;;;5015599;28;20038;-86
2022/08/30 04:23:08;;;;;;;12.13;8.20;;;;;;;;;;5024063;28;20061;-86
2022/08/30 04:25:35;;;;;;;14.15;8.48;;;;;;;;;;5026354;28;20410;-85
2022/08/30 04:28:01;;;;;;;11.98;7.80;;;;;;;;;;5025192;28;20030;-86
2022/08/30 04:30:27;;;;;;;14.23;8.25;;;;;;;;;;5031273;28;20502;-82
2022/08/30 04:32:53;;;;;;;11.48;8.00;;;;;;;;;;5026498;28;20028;-86
2022/08/30 04:35:20;;;;;;;14.18;8.30;;;;;;;;;;5033990;28;20567;-86
2022/08/30 04:37:46;;;;;;;13.13;7.95;;;;;;;;;;5020649;28;20049;-86
2022/08/30 04:40:12;;;;;;;12.63;8.25;;;;;;;;;;5022816;28;20030;-73
2022/08/30 04:42:39;;;;;;;11.55;8.00;;;;;;;;;;5022383;28;20018;-76
2022/08/30 04:45:08;;;;;;;14.23;8.30;;;;;;;;;;5024466;28;20099;-73
2022/08/30 04:47:34;;;;;;;13.05;7.22;;;;;;;;;;5025450;28;20040;-76
2022/08/30 04:50:02;;;;;;;14.18;8.15;;;;;;;;;;5022282;28;20061;-82
2022/08/30 04:52:28;;;;;;;12.15;7.00;;;;;;;;;;5024338;28;20029;-91
2022/08/30 04:54:58;;;;;;;10.70;7.53;;;;;;;;;;5032869;28;20376;-84
2022/08/30 04:57:24;;;;;;;11.45;7.70;;;;;;;;;;5029220;28;20479;-77
2022/08/30 04:59:50;;;;;;;11.73;7.57;;;;;;;;;;5020699;28;20045;-77
2022/08/30 05:02:17;;;;;;;14.60;8.32;;;;;;;;;;5019382;28;20049;-74
2022/08/30 05:05:38;;;;;;;11.27;7.80;;;;;;;;;;5019702;28;20026;-72
2022/08/30 05:07:30;;;;;;;15.18;8.70;;;;;;;;;;5027765;28;20037;-72
2022/08/30 05:09:57;;;;;;;11.13;7.47;;;;;;;;;;5018640;28;20065;-79
2022/08/30 05:12:23;;;;;;;12.38;7.78;;;;;;;;;;5022159;28;20459;-82
2022/08/30 05:14:50;;;;;;;11.95;7.60;;;;;;;;;;5024041;28;20034;-78
2022/08/30 05:17:16;;;;;;;11.65;8.13;;;;;;;;;;5022432;28;20032;-75
2022/08/30 05:19:42;;;;;;;9.88;7.55;;;;;;;;;;5020080;28;20040;-77
2022/08/30 05:22:09;;;;;;;10.88;7.65;;;;;;;;;;5021141;28;20050;-84
2022/08/30 05:24:35;;;;;;;9.95;7.20;;;;;;;;;;5020703;28;20048;-78
2022/08/30 05:27:02;;;;;;;10.40;7.32;;;;;;;;;;5025262;28;20029;-85
2022/08/30 05:29:28;;;;;;;16.33;7.28;;;;;;;;;;5016806;28;20175;-80
2022/08/30 05:31:54;;;;;;;10.23;6.68;;;;;;;;;;5021331;28;20082;-77
2022/08/30 05:34:20;;;;;;;9.75;6.60;;;;;;;;;;5028890;28;20029;-84
2022/08/30 05:36:46;;;;;;;9.63;6.32;;;;;;;;;;5016665;28;20026;-73
2022/08/30 05:39:13;;;;;;;8.68;5.97;;;;;;;;;;5025168;28;20029;-79
2022/08/30 05:41:40;;;;;;;10.13;6.18;;;;;;;;;;5025770;28;20176;-75
2022/08/30 05:44:07;;;;;;;9.23;6.20;;;;;;;;;;5019930;28;20084;-86
2022/08/30 05:46:33;;;;;;;11.30;7.07;;;;;;;;;;5024003;28;20906;-86
2022/08/30 05:49:03;;;;;;;9.93;6.57;;;;;;;;;;5030539;28;20025;-85
2022/08/30 05:51:30;;;;;;;9.15;6.10;;;;;;;;;;5030647;28;20087;-84
2022/08/30 05:53:57;;;;;;;10.32;6.22;;;;;;;;;;5021473;28;20057;-86
2022/08/30 05:56:24;;;;;;;9.23;6.35;;;;;;;;;;5025286;28;20046;-83
2022/08/30 05:58:50;;;;;;;9.20;6.32;;;;;;;;;;5019663;28;20037;-76
2022/08/30 06:01:21;;;;;;;11.35;7.03;;;;;;;;;;5025390;28;20038;-74
2022/08/30 06:03:47;;;;;;;9.23;6.78;;;;;;;;;;5024348;28;20025;-77
2022/08/30 06:06:14;;;;;;;7.45;6.20;;;;;;;;;;5015815;28;20037;-83
2022/08/30 06:08:41;;;;;;;9.25;5.97;;;;;;;;;;5028745;28;20029;-87
2022/08/30 06:11:07;;;;;;;11.80;6.15;;;;;;;;;;5020745;28;20394;-82
2022/08/30 06:13:33;;;;;;;7.22;5.80;;;;;;;;;;5020563;28;20030;-81
2022/08/30 06:15:59;;;;;;;10.63;6.70;;;;;;;;;;5019456;28;20052;-83
2022/08/30 06:18:25;;;;;;;7.00;6.30;;;;;;;;;;5015884;28;20049;-91
2022/08/30 06:20:51;;;;;;;11.10;6.28;;;;;;;;;;5017805;28;20088;-91
2022/08/30 06:23:17;;;;;;;9.98;6.40;;;;;;;;;;5024363;28;20037;-84
2022/08/30 06:25:44;;;;;;;8.52;6.35;;;;;;;;;;5023239;28;20029;-81
2022/08/30 06:28:12;;;;;;;12.20;6.60;;;;;;;;;;5020230;28;20041;-87
2022/08/30 06:30:39;;;;;;;9.43;6.30;;;;;;;;;;5023335;28;20042;-84
2022/08/30 06:33:05;;;;;;;9.27;6.43;;;;;;;;;;5014598;28;20403;-88
2022/08/30 06:35:32;;;;;;;9.10;6.88;;;;;;;;;;5018747;28;20038;-82
2022/08/30 06:37:58;;;;;;;12.60;7.50;;;;;;;;;;5025040;28;20365;-89
2022/08/30 06:40:25;;;;;;;10.60;6.82;;;;;;;;;;5027531;28;20068;-82
2022/08/30 06:42:51;;;;;;;13.07;6.13;;;;;;;;;;5019283;28;20372;-86
2022/08/30 06:45:19;;;;;;;9.23;6.70;;;;;;;;;;5024764;28;20029;-80
2022/08/30 06:47:45;;;;;;;9.18;5.97;;;;;;;;;;5016520;28;20020;-83
2022/08/30 06:50:13;;;;;;;10.25;6.85;;;;;;;;;;5017034;28;20030;-86
2022/08/30 06:52:41;;;;;;;11.43;6.28;;;;;;;;;;5013074;28;20022;-77
2022/08/30 06:55:07;;;;;;;15.13;6.70;;;;;;;;;;5025514;28;20048;-80
2022/08/30 06:57:33;;;;;;;7.18;5.70;;;;;;;;;;5020194;28;20029;-84
2022/08/30 07:00:01;;;;;;;11.55;5.53;;;;;;;;;;5020472;28;20064;-77
2022/08/30 07:02:27;;;;;;;9.15;5.80;;;;;;;;;;5022301;28;20024;-85
2022/08/30 07:04:53;;;;;;;9.80;6.20;;;;;;;;;;5028176;28;20048;-77
2022/08/30 07:07:19;;;;;;;8.80;6.18;;;;;;;;;;5034479;28;20026;-88
2022/08/30 07:09:46;;;;;;;11.20;6.80;;;;;;;;;;5028693;28;20117;-89
2022/08/30 07:12:12;;;;;;;8.32;6.03;;;;;;;;;;5026697;28;20056;-86
2022/08/30 07:14:39;;;;;;;8.10;6.28;;;;;;;;;;5025404;28;20055;-87
2022/08/30 07:18:49;;;;;;;8.40;6.60;;;;;;;;;;5028399;28;20037;-86
2022/08/30 07:19:52;;;;;;;10.85;6.60;;;;;;;;;;5017824;28;20479;-84
2022/08/30 07:22:18;;;;;;;14.68;7.32;;;;;;;;;;5022400;28;20103;-88
2022/08/30 07:24:44;;;;;;;11.77;6.82;;;;;;;;;;5023505;28;20091;-84
2022/08/30 07:27:10;;;;;;;11.43;7.20;;;;;;;;;;5023836;28;20522;-82
2022/08/30 07:29:36;;;;;;;12.05;8.10;;;;;;;;;;5024253;28;20202;-81
2022/08/30 07:32:03;;;;;;;10.50;6.57;;;;;;;;;;5021776;28;20032;-77
2022/08/30 07:34:29;;;;;;;9.68;6.00;;;;;;;;;;5021839;28;20536;-82
2022/08/30 07:36:55;;;;;;;9.20;5.93;;;;;;;;;;5018243;28;20048;-79
2022/08/30 07:39:21;;;;;;;10.35;6.28;;;;;;;;;;5023445;28;20095;-90
2022/08/30 07:41:47;;;;;;;6.38;5.78;;;;;;;;;;5019633;28;20560;-85
2022/08/30 07:44:13;;;;;;;203.95;126.90;;;;;;;;;;5024909;28;20033;-83
2022/08/30 07:46:40;;;;;;;184.10;126.82;;;;;;;;;;5024667;28;20060;-83
2022/08/30 07:49:08;;;;;;;35.30;22.95;;;;;;;;;;5023278;28;20037;-84
2022/08/30 07:51:34;;;;;;;21.40;17.20;;;;;;;;;;5023565;28;20030;-84
2022/08/30 07:54:00;;;;;;;12.18;8.73;;;;;;;;;;5025133;28;20030;-85
2022/08/30 07:56:26;;;;;;;10.43;6.40;;;;;;;;;;5026580;28;20025;-83
2022/08/30 07:58:53;;;;;;;15.10;10.85;;;;;;;;;;5025940;28;20506;-81
2022/08/30 08:01:20;;;;;;;15.30;9.73;;;;;;;;;;5026870;28;20045;-78
2022/08/30 08:03:46;;;;;;;9.10;6.93;;;;;;;;;;5022285;28;20140;-85
2022/08/30 08:06:14;;;;;;;10.30;6.32;;;;;;;;;;5025075;28;20029;-82
2022/08/30 08:08:40;;;;;;;9.85;6.32;;;;;;;;;;5027629;28;20423;-84
2022/08/30 08:11:13;;;;;;;12.95;6.22;;;;;;;;;;5024621;28;20056;-84
2022/08/30 08:13:39;;;;;;;7.93;5.75;;;;;;;;;;5018589;28;20025;-83
2022/08/30 08:16:06;;;;;;;8.82;6.25;;;;;;;;;;5025664;28;20117;-85
2022/08/30 08:18:32;;;;;;;10.23;6.40;;;;;;;;;;5021297;28;20430;-84
2022/08/30 08:20:59;;;;;;;9.25;6.30;;;;;;;;;;5018227;28;21133;-82
2022/08/30 08:23:25;;;;;;;8.15;5.90;;;;;;;;;;5016867;28;20533;-83
2022/08/30 08:25:52;;;;;;;13.70;5.95;;;;;;;;;;5019772;28;20099;-84
2022/08/30 08:28:18;;;;;;;8.98;6.20;;;;;;;;;;5022260;28;20422;-83
2022/08/30 08:30:44;;;;;;;11.07;6.57;;;;;;;;;;5027977;28;20040;-85
2022/08/30 08:33:12;;;;;;;10.00;6.13;;;;;;;;;;5023698;28;20129;-84
2022/08/30 08:35:38;;;;;;;7.22;5.50;;;;;;;;;;5023905;28;20463;-80
2022/08/30 08:38:04;;;;;;;8.98;5.50;;;;;;;;;;5026448;28;20034;-85
2022/08/30 08:40:34;;;;;;;11.05;5.75;;;;;;;;;;5020551;28;20099;-81
2022/08/30 08:43:02;;;;;;;10.23;6.35;;;;;;;;;;5022505;28;20030;-86
2022/08/30 08:45:31;;;;;;;9.43;6.13;;;;;;;;;;5024979;28;20029;-85
2022/08/30 08:47:59;;;;;;;10.07;5.95;;;;;;;;;;5023033;28;20084;-82
2022/08/30 08:50:25;;;;;;;8.48;6.30;;;;;;;;;;5021111;28;20029;-84
2022/08/30 08:55:40;;;;;;;9.77;5.70;;;;;;;;;;5018266;28;20395;-83
2022/08/30 08:58:06;;;;;;;6.85;5.13;;;;;;;;;;5016155;28;20482;-83
2022/08/30 09:00:32;;;;;;;7.55;5.57;;;;;;;;;;5022621;28;20132;-86
2022/08/30 09:03:03;;;;;;;6.85;5.68;;;;;;;;;;5022740;28;20029;-81
2022/08/30 09:05:34;;;;;;;8.00;5.68;;;;;;;;;;5019819;28;20030;-84
2022/08/30 09:08:01;;;;;;;8.52;5.55;;;;;;;;;;5018106;28;20025;-84
2022/08/30 09:10:28;;;;;;;7.88;5.32;;;;;;;;;;5020763;28;20387;-83
2022/08/30 09:12:54;;;;;;;7.63;5.72;;;;;;;;;;5018472;28;20048;-82
2022/08/30 09:15:22;;;;;;;6.40;5.15;;;;;;;;;;5022334;28;20487;-82
2022/08/30 09:17:58;;;;;;;6.15;5.32;;;;;;;;;;5028985;28;20238;-87
2022/08/30 09:20:29;;;;;;;8.70;4.78;;;;;;;;;;5019116;28;20030;-82
2022/08/30 09:22:55;;;;;;;7.82;5.30;;;;;;;;;;5018249;28;20042;-86
2022/08/30 09:25:22;;;;;;;9.90;5.15;;;;;;;;;;5021275;28;20037;-89
2022/08/30 09:27:49;;;;;;;8.20;4.93;;;;;;;;;;5017639;28;20026;-78
2022/08/30 09:30:28;;;;;;;15.57;5.30;;;;;;;;;;5015686;28;20030;-84
2022/08/30 09:32:54;;;;;;;7.75;4.80;;;;;;;;;;5017205;28;20029;-82
2022/08/30 09:35:26;;;;;;;8.43;4.95;;;;;;;;;;5017649;28;20053;-84
2022/08/30 09:37:57;;;;;;;8.35;4.93;;;;;;;;;;5020332;28;20535;-86
2022/08/30 09:40:28;;;;;;;7.90;5.30;;;;;;;;;;5018316;28;20038;-86
2022/08/30 09:42:59;;;;;;;9.93;5.22;;;;;;;;;;5021118;28;20574;-86
2022/08/30 09:45:30;;;;;;;9.07;5.53;;;;;;;;;;5021657;28;20033;-86
2022/08/30 09:47:56;;;;;;;9.85;5.38;;;;;;;;;;5020305;28;20034;-82
2022/08/30 09:50:23;;;;;;;12.00;6.00;;;;;;;;;;5013806;28;20021;-87
2022/08/30 09:52:49;;;;;;;10.10;5.72;;;;;;;;;;5019384;28;20032;-76
2022/08/30 09:55:35;;;;;;;10.93;5.13;;;;;;;;;;5022261;28;20066;-75
2022/08/30 09:58:20;;;;;;;6.65;5.15;;;;;;;;;;5024876;28;20387;-84
2022/08/30 10:00:48;;;;;;;5.38;4.43;;;;;;;;;;5017136;28;20034;-71
2022/08/30 10:03:53;;;;;;;17.67;5.72;;;;;;;;;;5019595;28;20022;-85
2022/08/30 10:06:19;;;;;;;6.95;5.00;;;;;;;;;;4968150;28;20500;-80
2022/08/30 10:08:48;;;;;;;7.93;5.32;;;;;;;;;;4969757;28;20034;-79
2022/08/30 10:11:26;;;;;;;6.93;5.18;;;;;;;;;;4979491;28;20034;-78
2022/08/30 10:13:58;;;;;;;5.95;5.00;;;;;;;;;;4970570;28;20034;-79
2022/08/30 10:16:36;;;;;;;12.13;5.45;;;;;;;;;;4976721;28;20041;-84
2022/08/30 10:19:07;;;;;;;9.82;4.70;;;;;;;;;;4971962;28;20109;-81
2022/08/30 10:21:37;;;;;;;5.70;4.88;;;;;;;;;;4969138;28;20054;-82
2022/08/30 10:24:11;;;;;;;9.57;5.40;;;;;;;;;;4971298;28;20102;-88
2022/08/30 10:26:37;;;;;;;10.25;5.30;;;;;;;;;;4974730;28;20030;-83
2022/08/30 10:29:07;;;;;;;6.72;4.72;;;;;;;;;;4968471;28;20031;-87
2022/08/30 10:31:48;;;;;;;7.38;5.00;;;;;;;;;;4978449;28;20031;-83
2022/08/30 10:34:21;;;;;;;6.13;4.22;;;;;;;;;;4974078;28;20492;-80
2022/08/30 10:37:00;;;;;;;7.22;3.85;;;;;;;;;;4987884;28;20110;-81
2022/08/30 10:39:32;;;;;;;6.95;4.20;;;;;;;;;;5015160;28;20033;-85
2022/08/30 10:42:01;;;;;;;5.47;4.00;;;;;;;;;;5024504;28;20047;-81
2022/08/30 10:44:30;;;;;;;5.30;3.70;;;;;;;;;;5031986;28;20025;-84
2022/08/30 10:47:03;;;;;;;6.15;3.97;;;;;;;;;;5023092;28;20487;-84
2022/08/30 10:49:33;;;;;;;5.80;4.05;;;;;;;;;;5015879;28;20034;-84
2022/08/30 10:52:11;;;;;;;6.78;5.20;;;;;;;;;;5023003;28;20030;-84
2022/08/30 10:54:46;;;;;;;5.78;3.85;;;;;;;;;;5022426;28;20037;-81
2022/08/30 10:57:12;;;;;;;6.63;4.63;;;;;;;;;;5019980;28;20022;-82
2022/08/30 10:59:44;;;;;;;5.43;4.13;;;;;;;;;;5021005;28;20026;-84
2022/08/30 11:02:33;;;;;;;5.72;3.78;;;;;;;;;;5023649;28;20021;-85
2022/08/30 11:05:18;;;;;;;7.53;4.28;;;;;;;;;;4938923;29;20031;-89
2022/08/30 11:07:52;;;;;;;5.57;4.45;;;;;;;;;;4930326;29;20066;-83
2022/08/30 11:10:18;;;;;;;8.00;4.78;;;;;;;;;;4932442;29;20434;-73
2022/08/30 11:12:44;;;;;;;7.47;4.50;;;;;;;;;;4937757;29;20043;-73
2022/08/30 11:15:17;;;;;;;8.45;4.45;;;;;;;;;;4941822;28;20027;-76
2022/08/30 11:18:01;;;;;;;6.07;4.20;;;;;;;;;;4942869;29;20043;-81
2022/08/30 11:20:32;;;;;;;8.13;4.22;;;;;;;;;;4942422;29;20046;-83
2022/08/30 11:23:17;;;;;;;5.60;3.95;;;;;;;;;;4898039;29;1265234;-85
2022/08/30 11:25:47;;;;;;;7.43;4.22;;;;;;;;;;4941977;29;20024;-79
2022/08/30 11:28:33;;;;;;;5.72;4.00;;;;;;;;;;4937646;29;20102;-82
2022/08/30 11:31:09;;;;;;;10.45;4.50;;;;;;;;;;4948207;29;20039;-82
2022/08/30 11:33:43;;;;;;;6.45;4.60;;;;;;;;;;4944561;29;20046;-79
2022/08/30 11:36:10;;;;;;;7.70;4.43;;;;;;;;;;4948377;29;20151;-78
2022/08/30 11:38:36;;;;;;;4.85;3.83;;;;;;;;;;4940544;29;20027;-86
2022/08/30 11:41:07;;;;;;;10.93;4.50;;;;;;;;;;4953936;28;20075;-91
2022/08/30 11:43:33;;;;;;;5.85;4.30;;;;;;;;;;5026862;28;20022;-84
2022/08/30 11:46:38;;;;;;;7.55;4.35;;;;;;;;;;5020951;28;20419;-83
2022/08/30 11:49:13;;;;;;;4.60;3.75;;;;;;;;;;4953165;29;20130;-85
2022/08/30 11:51:39;;;;;;;6.30;3.75;;;;;;;;;;4946937;29;20039;-83
2022/08/30 11:54:25;;;;;;;4.75;4.28;;;;;;;;;;4948336;29;20070;-78
2022/08/30 11:57:11;;;;;;;8.65;3.80;;;;;;;;;;4927561;29;20428;-83
2022/08/30 12:00:01;;;;;;;9.10;5.43;;;;;;;;;;4942945;29;20035;-88
2022/08/30 12:02:39;;;;;;;7.20;4.63;;;;;;;;;;4887613;29;20131;-92
2022/08/30 12:05:05;;;;;;;5.15;3.90;;;;;;;;;;4870903;29;20128;-89
2022/08/30 12:07:50;;;;;;;9.32;3.67;;;;;;;;;;4880960;29;20040;-85
2022/08/30 12:10:22;;;;;;;11.55;4.15;;;;;;;;;;4877732;29;20065;-76
2022/08/30 12:12:49;;;;;;;7.47;3.83;;;;;;;;;;4892991;29;20064;-80
2022/08/30 12:15:34;;;;;;;7.57;4.60;;;;;;;;;;4896512;29;20032;-82
2022/08/30 12:20:46;;;;;;;5.10;3.90;;;;;;;;;;4938377;28;20156;-78
2022/08/30 12:23:31;;;;;;;11.20;4.07;;;;;;;;;;4922815;29;20513;-74
2022/08/30 12:26:36;;;;;;;4.28;3.50;;;;;;;;;;4902329;29;20545;-82
2022/08/30 12:29:20;;;;;;;4.70;3.55;;;;;;;;;;4856002;29;20449;-80
2022/08/30 12:31:52;;;;;;;5.80;3.67;;;;;;;;;;4857625;29;20036;-83
2022/08/30 12:34:21;;;;;;;6.05;3.60;;;;;;;;;;4847792;29;20068;-74
2022/08/30 12:36:54;;;;;;;7.38;3.92;;;;;;;;;;4848681;29;20026;-81
2022/08/30 12:39:22;;;;;;;6.15;3.88;;;;;;;;;;4847324;29;20055;-75
2022/08/30 12:41:48;;;;;;;11.75;4.15;;;;;;;;;;4883987;29;20115;-74
2022/08/30 12:44:19;;;;;;;5.60;3.88;;;;;;;;;;4877492;29;20985;-83
2022/08/30 12:46:47;;;;;;;6.75;3.75;;;;;;;;;;4877027;29;20562;-79
2022/08/30 12:49:14;;;;;;;6.15;4.35;;;;;;;;;;4878800;29;20492;-81
2022/08/30 12:51:41;;;;;;;8.07;3.70;;;;;;;;;;4872319;29;20161;-77
2022/08/30 12:54:12;;;;;;;7.95;3.88;;;;;;;;;;4871011;29;20053;-80
2022/08/30 12:56:50;;;;;;;8.32;4.18;;;;;;;;;;4867920;29;20033;-79
2022/08/30 12:59:35;;;;;;;5.72;3.55;;;;;;;;;;4910362;28;20050;-76
2022/08/30 13:02:28;;;;;;;8.85;3.60;;;;;;;;;;5007610;28;20540;-78
2022/08/30 13:04:55;;;;;;;10.25;5.13;;;;;;;;;;5003989;28;20472;-74
2022/08/30 13:07:34;;;;;;;5.82;3.88;;;;;;;;;;4998504;28;20040;-78
2022/08/30 13:10:00;;;;;;;7.88;4.00;;;;;;;;;;5000492;28;20034;-76
2022/08/30 13:12:27;;;;;;;16.52;4.50;;;;;;;;;;5000225;28;20034;-80
2022/08/30 13:15:08;;;;;;;6.00;3.80;;;;;;;;;;4995324;28;20026;-78
2022/08/30 13:17:34;;;;;;;8.07;4.22;;;;;;;;;;4989153;28;20109;-77
2022/08/30 13:20:05;;;;;;;11.05;4.40;;;;;;;;;;5005914;28;20045;-80
2022/08/30 13:22:33;;;;;;;10.60;4.18;;;;;;;;;;5008976;28;20041;-73
2022/08/30 13:24:59;;;;;;;7.40;4.13;;;;;;;;;;5029594;28;20022;-73
2022/08/30 13:27:26;;;;;;;9.95;4.30;;;;;;;;;;5015416;28;20076;-78
2022/08/30 13:29:52;;;;;;;6.95;3.42;;;;;;;;;;5025293;28;20048;-79
2022/08/30 13:32:19;;;;;;;6.38;4.10;;;;;;;;;;5016983;28;20037;-80
2022/08/30 13:34:45;;;;;;;4.20;3.55;;;;;;;;;;5015409;28;20514;-80
2022/08/30 13:37:14;;;;;;;5.93;4.18;;;;;;;;;;5013481;28;20033;-75
2022/08/30 13:39:40;;;;;;;6.78;4.35;;;;;;;;;;5012579;28;20053;-80
2022/08/30 13:42:06;;;;;;;6.05;3.83;;;;;;;;;;5013436;28;20037;-80
2022/08/30 13:44:32;;;;;;;6.78;4.00;;;;;;;;;;5018640;28;20029;-80
2022/08/30 13:46:59;;;;;;;4.00;3.55;;;;;;;;;;5030695;28;20091;-80
2022/08/30 13:49:27;;;;;;;4.70;3.40;;;;;;;;;;5024876;28;20028;-81
2022/08/30 13:51:54;;;;;;;7.53;3.90;;;;;;;;;;5017081;28;20448;-81
2022/08/30 13:54:21;;;;;;;7.88;3.95;;;;;;;;;;5025428;28;20080;-73
2022/08/30 13:56:48;;;;;;;6.95;3.72;;;;;;;;;;5030272;28;20052;-80
2022/08/30 13:59:15;;;;;;;6.55;3.72;;;;;;;;;;5020945;28;20061;-81
2022/08/30 14:01:41;;;;;;;10.13;3.58;;;;;;;;;;5012590;28;20447;-79
2022/08/30 14:04:07;;;;;;;5.95;3.50;;;;;;;;;;5016181;28;20049;-80
2022/08/30 14:06:33;;;;;;;4.82;3.30;;;;;;;;;;5013688;28;20030;-79
2022/08/30 14:08:59;;;;;;;5.22;3.60;;;;;;;;;;5016157;28;20046;-76
2022/08/30 14:11:25;;;;;;;9.18;4.13;;;;;;;;;;5014335;28;20482;-74
2022/08/30 14:13:51;;;;;;;7.32;4.47;;;;;;;;;;5014436;28;20468;-81
2022/08/30 14:16:17;;;;;;;10.18;4.68;;;;;;;;;;5013183;28;20036;-83
2022/08/30 14:18:43;;;;;;;8.05;4.05;;;;;;;;;;5012613;28;20018;-84
2022/08/30 14:21:09;;;;;;;7.03;4.35;;;;;;;;;;5012468;28;20038;-81
2022/08/30 14:23:35;;;;;;;5.65;4.38;;;;;;;;;;5019739;28;20081;-84
2022/08/30 14:26:04;;;;;;;8.13;4.80;;;;;;;;;;5020485;28;20026;-83
2022/08/30 14:28:30;;;;;;;7.55;4.93;;;;;;;;;;5023844;28;20395;-81
2022/08/30 14:30:56;;;;;;;9.02;5.70;;;;;;;;;;5022540;28;20040;-84
2022/08/30 14:33:22;;;;;;;5.60;4.50;;;;;;;;;;5018670;28;20044;-78
2022/08/30 14:35:48;;;;;;;5.68;4.57;;;;;;;;;;5014161;28;20033;-79
2022/08/30 14:38:14;;;;;;;7.68;4.57;;;;;;;;;;5021662;28;20022;-84
2022/08/30 14:40:41;;;;;;;7.20;4.25;;;;;;;;;;5016115;28;20037;-76
2022/08/30 14:43:07;;;;;;;9.35;4.63;;;;;;;;;;5016664;28;20048;-82
2022/08/30 14:45:33;;;;;;;7.72;4.28;;;;;;;;;;5015940;28;20025;-82
2022/08/30 14:48:01;;;;;;;6.57;4.45;;;;;;;;;;5016019;28;20113;-81
2022/08/30 14:50:27;;;;;;;7.50;4.88;;;;;;;;;;5018218;28;20018;-84
2022/08/30 14:52:53;;;;;;;8.73;4.75;;;;;;;;;;5017413;28;20022;-83